createdAt,value
2023-09-26T00:03:00.000Z,5.1
2023-09-26T00:06:33.000Z,6.4
2023-09-26T00:10:06.000Z,4.8
2023-09-26T00:13:39.000Z,5.1
2023-09-26T00:17:12.000Z,4.5
2023-09-26T00:20:45.000Z,5.1
2023-09-26T00:24:18.000Z,5.2
2023-09-26T00:27:03.000Z,6.7
2023-09-26T00:30:36.000Z,5.5
2023-09-26T00:34:08.000Z,15.7
2023-09-26T00:37:41.000Z,10
2023-09-26T00:41:14.000Z,7.3
2023-09-26T00:44:47.000Z,6.8
2023-09-26T00:48:20.000Z,5.7
2023-09-26T00:51:52.000Z,5.4
2023-09-26T00:55:25.000Z,8.4
2023-09-26T00:58:58.000Z,6
2023-09-26T01:02:30.000Z,5.7
2023-09-26T01:05:15.000Z,6.1
2023-09-26T01:08:48.000Z,5.8
2023-09-26T01:12:21.000Z,8.7
2023-09-26T01:15:54.000Z,6.9
2023-09-26T01:19:27.000Z,6.7
2023-09-26T01:23:00.000Z,4.6
2023-09-26T01:26:32.000Z,5.9
2023-09-26T01:30:05.000Z,6
2023-09-26T01:33:38.000Z,6.8
2023-09-26T01:37:11.000Z,6.5
2023-09-26T01:40:44.000Z,6.8
2023-09-26T01:43:29.000Z,13.5
2023-09-26T01:47:02.000Z,13
2023-09-26T01:50:34.000Z,8.8
2023-09-26T01:54:07.000Z,8.7
2023-09-26T01:57:41.000Z,11.3
2023-09-26T02:01:13.000Z,6.8
2023-09-26T02:04:46.000Z,10.5
2023-09-26T02:08:19.000Z,11.3
2023-09-26T02:11:52.000Z,15.3
2023-09-26T02:15:24.000Z,8.6
2023-09-26T02:18:57.000Z,14.5
2023-09-26T02:21:43.000Z,11
2023-09-26T02:25:16.000Z,10.6
2023-09-26T02:28:49.000Z,13.3
2023-09-26T02:32:21.000Z,13.3
2023-09-26T02:35:54.000Z,18.9
2023-09-26T02:39:27.000Z,13.3
2023-09-26T02:43:00.000Z,12.2
2023-09-26T02:46:33.000Z,11.5
2023-09-26T02:50:05.000Z,9.4
2023-09-26T02:53:38.000Z,7
2023-09-26T02:57:11.000Z,18.6
2023-09-26T02:59:58.000Z,13.6
2023-09-26T03:03:30.000Z,14.3
2023-09-26T03:07:03.000Z,16.4
2023-09-26T03:10:36.000Z,15.7
2023-09-26T03:14:08.000Z,20.7
2023-09-26T03:17:41.000Z,10.4
2023-09-26T03:21:14.000Z,12.7
2023-09-26T03:24:47.000Z,11.9
2023-09-26T03:28:19.000Z,7.6
2023-09-26T03:31:52.000Z,6.4
2023-09-26T03:35:25.000Z,5.7
2023-09-26T03:38:10.000Z,7.7
2023-09-26T03:41:43.000Z,5.8
2023-09-26T03:45:16.000Z,5.8
2023-09-26T03:48:49.000Z,5.8
2023-09-26T03:52:21.000Z,9.3
2023-09-26T03:55:54.000Z,7.8
2023-09-26T03:59:27.000Z,8.6
2023-09-26T04:03:00.000Z,10.9
2023-09-26T04:06:33.000Z,7.9
2023-09-26T04:10:06.000Z,9
2023-09-26T04:13:38.000Z,9.5
2023-09-26T04:16:24.000Z,13.8
2023-09-26T04:19:57.000Z,10.2
2023-09-26T04:23:29.000Z,8.8
2023-09-26T04:27:02.000Z,10.6
2023-09-26T04:30:35.000Z,7.7
2023-09-26T04:34:08.000Z,8.8
2023-09-26T04:37:41.000Z,8
2023-09-26T04:41:14.000Z,6.5
2023-09-26T04:44:46.000Z,7
2023-09-26T04:48:19.000Z,6.8
2023-09-26T04:51:52.000Z,8.7
2023-09-26T04:54:37.000Z,13.1
2023-09-26T04:58:10.000Z,8.3
2023-09-26T05:01:43.000Z,7.1
2023-09-26T05:05:16.000Z,7.6
2023-09-26T05:08:49.000Z,10.3
2023-09-26T05:12:22.000Z,7.4
2023-09-26T05:15:54.000Z,5.9
2023-09-26T05:19:27.000Z,6.9
2023-09-26T05:23:00.000Z,5.9
2023-09-26T05:26:33.000Z,5.9
2023-09-26T05:30:05.000Z,6.2
2023-09-26T05:32:51.000Z,8.8
2023-09-26T05:36:24.000Z,12.1
2023-09-26T05:39:57.000Z,10.3
2023-09-26T05:43:30.000Z,10.8
2023-09-26T05:47:03.000Z,7.6
2023-09-26T05:50:36.000Z,8.2
2023-09-26T05:54:10.000Z,6.5
2023-09-26T05:57:56.000Z,7.1
2023-09-26T06:01:30.000Z,6.7
2023-09-26T06:05:03.000Z,7.1
2023-09-26T06:08:35.000Z,8.8
2023-09-26T06:11:20.000Z,5.9
2023-09-26T06:14:53.000Z,5.6
2023-09-26T06:18:26.000Z,5.7
2023-09-26T06:21:59.000Z,7.3
2023-09-26T06:25:32.000Z,9.2
2023-09-26T06:29:21.000Z,8
2023-09-26T06:32:54.000Z,6.9
2023-09-26T06:36:27.000Z,7.9
2023-09-26T06:40:00.000Z,6.4
2023-09-26T06:43:32.000Z,6.6
2023-09-26T06:47:05.000Z,6.2
2023-09-26T06:49:50.000Z,6.7
2023-09-26T06:53:23.000Z,6.3
2023-09-26T06:56:56.000Z,6.1
2023-09-26T07:00:29.000Z,5.6
2023-09-26T07:04:02.000Z,12.4
2023-09-26T07:07:35.000Z,8.7
2023-09-26T07:11:07.000Z,8
2023-09-26T07:14:40.000Z,7.4
2023-09-26T07:18:13.000Z,6.7
2023-09-26T07:21:46.000Z,7
2023-09-26T07:25:19.000Z,6.3
2023-09-26T07:28:04.000Z,6.1
2023-09-26T07:31:37.000Z,5.6
2023-09-26T07:35:10.000Z,5.5
2023-09-26T07:38:43.000Z,6.6
2023-09-26T07:42:17.000Z,5.3
2023-09-26T07:45:50.000Z,6.5
2023-09-26T07:49:23.000Z,6.8
2023-09-26T07:52:56.000Z,5.5
2023-09-26T07:56:29.000Z,5.3
2023-09-26T08:00:01.000Z,7.2
2023-09-26T08:03:34.000Z,9.5
2023-09-26T08:06:20.000Z,8
2023-09-26T08:09:53.000Z,6.7
2023-09-26T08:13:26.000Z,7.6
2023-09-26T08:16:58.000Z,9.6
2023-09-26T08:20:31.000Z,7
2023-09-26T08:24:04.000Z,6.4
2023-09-26T08:27:36.000Z,6.8
2023-09-26T08:31:09.000Z,6.5
2023-09-26T08:34:42.000Z,8.3
2023-09-26T08:38:15.000Z,5.6
2023-09-26T08:41:47.000Z,8.6
2023-09-26T08:44:33.000Z,8.6
2023-09-26T08:48:06.000Z,7.7
2023-09-26T08:51:39.000Z,11.8
2023-09-26T08:55:12.000Z,9.6
2023-09-26T08:58:45.000Z,11
2023-09-26T09:02:18.000Z,13.7
2023-09-26T09:05:51.000Z,10.8
2023-09-26T09:09:24.000Z,12.9
2023-09-26T09:12:57.000Z,11.4
2023-09-26T09:16:32.000Z,13
2023-09-26T09:20:05.000Z,8
2023-09-26T09:22:50.000Z,9.7
2023-09-26T09:26:23.000Z,10.5
2023-09-26T09:29:56.000Z,7.2
2023-09-26T09:33:29.000Z,11.4
2023-09-26T09:37:02.000Z,8.3
2023-09-26T09:40:35.000Z,8.7
2023-09-26T09:44:08.000Z,10.2
2023-09-26T09:47:41.000Z,6.5
2023-09-26T09:51:14.000Z,9.9
2023-09-26T09:54:47.000Z,8.4
2023-09-26T09:58:19.000Z,6.1
2023-09-26T10:01:05.000Z,7.9
2023-09-26T10:04:38.000Z,8.2
2023-09-26T10:08:11.000Z,5.3
2023-09-26T10:11:44.000Z,7.1
2023-09-26T10:15:35.000Z,5.5
2023-09-26T10:19:08.000Z,6.1
2023-09-26T10:22:52.000Z,5.1
2023-09-26T10:26:25.000Z,6.5
2023-09-26T10:29:59.000Z,5.1
2023-09-26T10:33:32.000Z,7.6
2023-09-26T10:37:05.000Z,5.4
2023-09-26T10:39:50.000Z,8.4
2023-09-26T10:43:23.000Z,5.1
2023-09-26T10:47:11.000Z,5.4
2023-09-26T10:50:44.000Z,6.1
2023-09-26T10:54:17.000Z,6.9
2023-09-26T10:57:50.000Z,5.7
2023-09-26T11:01:22.000Z,4.7
2023-09-26T11:17:12.000Z,4.2
2023-09-26T11:20:46.000Z,6.1
2023-09-26T11:24:41.000Z,5.8
2023-09-26T11:28:14.000Z,5.1
2023-09-26T11:31:00.000Z,5
2023-09-26T11:34:33.000Z,6.7
2023-09-26T11:38:05.000Z,5.9
2023-09-26T11:41:38.000Z,4
2023-09-26T11:45:16.000Z,8
2023-09-26T11:48:49.000Z,4.4
2023-09-26T11:52:21.000Z,4.5
2023-09-26T11:55:54.000Z,4.5
2023-09-26T11:59:28.000Z,5.5
2023-09-26T12:03:01.000Z,4.5
2023-09-26T12:06:34.000Z,5
2023-09-26T12:09:19.000Z,5.4
2023-09-26T12:12:52.000Z,4.3
2023-09-26T12:16:25.000Z,4.5
2023-09-26T12:19:58.000Z,5.5
2023-09-26T12:23:31.000Z,4
2023-09-26T12:27:04.000Z,3.9
2023-09-26T12:30:37.000Z,3.7
2023-09-26T12:34:10.000Z,3.4
2023-09-26T12:37:43.000Z,4.9
2023-09-26T12:41:16.000Z,4.3
2023-09-26T12:44:49.000Z,4.5
2023-09-26T12:47:34.000Z,4.4
2023-09-26T12:51:07.000Z,4.4
2023-09-26T12:54:40.000Z,5.9
2023-09-26T12:58:13.000Z,3.7
2023-09-26T13:01:45.000Z,3.9
2023-09-26T13:05:18.000Z,3.8
2023-09-26T13:08:51.000Z,4.7
2023-09-26T13:12:24.000Z,5.5
2023-09-26T13:15:57.000Z,3.7
2023-09-26T13:19:30.000Z,4.5
2023-09-26T13:23:03.000Z,5.5
2023-09-26T13:25:49.000Z,3.8
2023-09-26T13:29:22.000Z,4.4
2023-09-26T13:32:54.000Z,5.1
2023-09-26T13:36:27.000Z,4.9
2023-09-26T13:40:04.000Z,4
2023-09-26T13:43:37.000Z,3.8
2023-09-26T13:47:09.000Z,3.9
2023-09-26T13:50:42.000Z,4.8
2023-09-26T13:54:15.000Z,4.3
2023-09-26T13:57:48.000Z,3.7
2023-09-26T14:01:21.000Z,3.5
2023-09-26T14:04:06.000Z,3.4
2023-09-26T14:07:40.000Z,3.9
2023-09-26T14:11:13.000Z,3.4
2023-09-26T14:14:46.000Z,4.5
2023-09-26T14:18:18.000Z,4.3
2023-09-26T14:21:51.000Z,6.8
2023-09-26T14:25:24.000Z,4.9
2023-09-26T14:28:57.000Z,5.3
2023-09-26T14:32:29.000Z,4.6
2023-09-26T14:36:03.000Z,4.1
2023-09-26T14:39:35.000Z,3.7
2023-09-26T14:42:21.000Z,3.8
2023-09-26T14:45:53.000Z,5
2023-09-26T14:49:26.000Z,4.3
2023-09-26T14:52:59.000Z,6.3
2023-09-26T14:56:32.000Z,4
2023-09-26T15:00:05.000Z,5.5
2023-09-26T15:03:39.000Z,5.5
2023-09-26T15:07:12.000Z,4.3
2023-09-26T15:10:44.000Z,4.7
2023-09-26T15:14:17.000Z,4.2
2023-09-26T15:17:50.000Z,5
2023-09-26T15:20:36.000Z,4.2
2023-09-26T15:24:09.000Z,5.1
2023-09-26T15:27:42.000Z,5.7
2023-09-26T15:31:14.000Z,5.3
2023-09-26T15:34:48.000Z,3.9
2023-09-26T15:38:20.000Z,6.2
2023-09-26T15:41:53.000Z,4.8
2023-09-26T15:45:26.000Z,4.5
2023-09-26T15:49:01.000Z,5.4
2023-09-26T15:52:34.000Z,4.7
2023-09-26T15:56:07.000Z,5
2023-09-26T15:58:52.000Z,4.8
2023-09-26T16:02:25.000Z,5.3
2023-09-26T16:05:59.000Z,4.4
2023-09-26T16:09:32.000Z,4.6
2023-09-26T16:13:04.000Z,5.1
2023-09-26T16:16:37.000Z,4.9
2023-09-26T16:20:10.000Z,5.8
2023-09-26T16:23:43.000Z,4
2023-09-26T16:27:16.000Z,4.2
2023-09-26T16:30:48.000Z,4.9
2023-09-26T16:34:22.000Z,5
2023-09-26T16:37:07.000Z,4.1
2023-09-26T16:40:40.000Z,5.1
2023-09-26T16:44:13.000Z,4.4
2023-09-26T16:47:45.000Z,5.8
2023-09-26T16:51:18.000Z,4.7
2023-09-26T16:54:51.000Z,6.1
2023-09-26T16:58:24.000Z,5
2023-09-26T17:01:57.000Z,7.8
2023-09-26T17:05:30.000Z,5.9
2023-09-26T17:09:03.000Z,6.2
2023-09-26T17:12:36.000Z,5.3
2023-09-26T17:15:21.000Z,5.2
2023-09-26T17:18:54.000Z,5.7
2023-09-26T17:22:27.000Z,5
2023-09-26T17:26:00.000Z,5.3
2023-09-26T17:29:33.000Z,5.9
2023-09-26T17:33:06.000Z,5.8
2023-09-26T17:36:38.000Z,6.2
2023-09-26T17:40:11.000Z,6.8
2023-09-26T17:43:44.000Z,5.4
2023-09-26T17:47:17.000Z,5.4
2023-09-26T17:50:50.000Z,6.6
2023-09-26T17:53:35.000Z,5.4
2023-09-26T17:57:08.000Z,6.5
2023-09-26T18:00:41.000Z,6.9
2023-09-26T18:04:14.000Z,7
2023-09-26T18:07:46.000Z,6
2023-09-26T18:11:19.000Z,5.6
2023-09-26T18:14:52.000Z,6.5
2023-09-26T18:18:25.000Z,7
2023-09-26T18:21:58.000Z,7.5
2023-09-26T18:25:30.000Z,5.8
2023-09-26T18:29:03.000Z,7.2
2023-09-26T18:31:48.000Z,6.2
2023-09-26T18:35:22.000Z,8.3
2023-09-26T18:38:54.000Z,7.5
2023-09-26T18:42:27.000Z,6.3
2023-09-26T18:46:00.000Z,8.9
2023-09-26T18:49:33.000Z,8.8
2023-09-26T18:53:06.000Z,6.5
2023-09-26T18:56:39.000Z,8.2
2023-09-26T19:00:11.000Z,6.4
2023-09-26T19:03:44.000Z,7.6
2023-09-26T19:07:18.000Z,6.5
2023-09-26T19:10:03.000Z,6.2
2023-09-26T19:13:36.000Z,7.3
2023-09-26T19:17:09.000Z,7.5
2023-09-26T19:21:02.000Z,7.1
2023-09-26T19:24:36.000Z,8.2
2023-09-26T19:28:09.000Z,6.2
2023-09-26T19:31:42.000Z,7.5
2023-09-26T19:35:15.000Z,8.4
2023-09-26T19:38:49.000Z,7.1
2023-09-26T19:42:21.000Z,8.4
2023-09-26T19:45:54.000Z,9.3
2023-09-26T19:48:40.000Z,10.7
2023-09-26T19:52:13.000Z,9
2023-09-26T19:55:46.000Z,8.2
2023-09-26T19:59:19.000Z,7.2
2023-09-26T20:02:51.000Z,7.3
2023-09-26T20:06:24.000Z,8.9
2023-09-26T20:09:57.000Z,8.2
2023-09-26T20:13:30.000Z,8.1
2023-09-26T20:17:21.000Z,8.5
2023-09-26T20:20:54.000Z,7
2023-09-26T20:24:27.000Z,6.8
2023-09-26T20:27:12.000Z,9.3
2023-09-26T20:30:48.000Z,6.7
2023-09-26T20:34:21.000Z,7.5
2023-09-26T20:37:53.000Z,6.1
2023-09-26T20:41:26.000Z,7.2
2023-09-26T20:44:59.000Z,6.4
2023-09-26T20:48:31.000Z,7
2023-09-26T20:52:05.000Z,6.7
2023-09-26T20:55:38.000Z,8.4
2023-09-26T20:59:14.000Z,7.9
2023-09-26T21:02:46.000Z,7
2023-09-26T21:05:32.000Z,6.8
2023-09-26T21:09:05.000Z,9.9
2023-09-26T21:12:38.000Z,6.2
2023-09-26T21:16:10.000Z,8.8
2023-09-26T21:19:44.000Z,6.1
2023-09-26T21:23:16.000Z,7.1
2023-09-26T21:26:49.000Z,6.8
2023-09-26T21:30:22.000Z,7.8
2023-09-26T21:33:55.000Z,6.3
2023-09-26T21:37:27.000Z,6.3
2023-09-26T21:41:01.000Z,5.5
2023-09-26T21:43:46.000Z,6.2
2023-09-26T21:47:19.000Z,6.2
2023-09-26T21:50:52.000Z,7.6
2023-09-26T21:54:24.000Z,7.9
2023-09-26T21:57:58.000Z,11.8
2023-09-26T22:01:31.000Z,6.9
2023-09-26T22:05:04.000Z,8.1
2023-09-26T22:08:37.000Z,6.9
2023-09-26T22:12:09.000Z,6.8
2023-09-26T22:15:42.000Z,5.8
2023-09-26T22:19:16.000Z,6.1
2023-09-26T22:22:01.000Z,5.9
2023-09-26T22:25:34.000Z,8.3
2023-09-26T22:29:07.000Z,9.4
2023-09-26T22:32:40.000Z,12.5
2023-09-26T22:36:13.000Z,7.7
2023-09-26T22:39:46.000Z,8.1
2023-09-26T22:43:18.000Z,7
2023-09-26T22:46:51.000Z,7.7
2023-09-26T22:50:24.000Z,6.7
2023-09-26T22:53:57.000Z,8.2
2023-09-26T22:57:30.000Z,6.8
2023-09-26T23:00:15.000Z,6.8
2023-09-26T23:03:48.000Z,7.7
2023-09-26T23:07:21.000Z,6.4
2023-09-26T23:10:54.000Z,9.2
2023-09-26T23:14:27.000Z,7.5
2023-09-26T23:18:00.000Z,7.3
2023-09-26T23:21:33.000Z,7.3
2023-09-26T23:25:07.000Z,7.2
2023-09-26T23:28:39.000Z,12.6
2023-09-26T23:32:13.000Z,14.5
2023-09-26T23:35:46.000Z,20.7
2023-09-26T23:38:31.000Z,12
2023-09-26T23:42:04.000Z,11.7
2023-09-26T23:45:36.000Z,15.9
2023-09-26T23:49:10.000Z,12.8
2023-09-26T23:52:42.000Z,7.7
2023-09-26T23:56:15.000Z,9.4
2023-09-26T23:59:48.000Z,26.2
